Time;durP1;ratioP1;P1;durP2;ratioP2;P2;SDS_P1;SDS_P2;PMS_P1;PMS_P2;Temp;Humidity;BMP_temperature;BMP_pressure;BME280_temperature;BME280_humidity;BME280_pressure;Samples;Min_cycle;Max_cycle;Signal;HPM_P1;HPM_P2
2022/01/13 00:01:30;;;;;;;43.72;17.02;;;3.90;95.50;;;;;;4980449;28;20053;-79
2022/01/13 00:03:59;;;;;;;48.22;17.35;;;4.00;95.50;;;;;;4996511;28;20119;-79
2022/01/13 00:06:26;;;;;;;42.63;17.38;;;3.90;95.50;;;;;;4996775;28;20045;-79
2022/01/13 00:08:53;;;;;;;50.63;17.60;;;3.90;95.50;;;;;;4981376;28;20069;-79
2022/01/13 00:11:20;;;;;;;49.47;17.23;;;4.00;95.50;;;;;;4981229;28;20507;-80
2022/01/13 00:14:06;;;;;;;45.75;15.40;;;3.90;95.50;;;;;;4949149;28;20045;-79
2022/01/13 00:19:34;;;;;;;50.15;18.17;;;3.90;95.50;;;;;;4980655;28;20049;-79
2022/01/13 00:22:02;;;;;;;47.45;17.55;;;3.90;95.50;;;;;;4996978;28;20557;-79
2022/01/13 00:24:29;;;;;;;44.08;14.93;;;3.90;95.60;;;;;;4967052;28;20054;-79
2022/01/13 00:26:56;;;;;;;49.58;17.98;;;3.90;95.50;;;;;;4997240;28;20525;-79
2022/01/13 00:29:30;;;;;;;46.30;17.00;;;3.90;95.50;;;;;;4981477;28;20046;-79
2022/01/13 00:31:57;;;;;;;43.90;16.40;;;3.90;95.50;;;;;;4980908;28;20413;-79
2022/01/13 00:34:24;;;;;;;34.60;13.23;;;3.90;95.60;;;;;;5012962;28;20810;-79
2022/01/13 00:36:51;;;;;;;45.15;15.95;;;3.90;95.50;;;;;;4996929;28;20046;-79
2022/01/13 00:39:18;;;;;;;44.13;14.68;;;3.90;95.50;;;;;;4996624;28;20038;-79
2022/01/13 00:41:45;;;;;;;42.97;14.90;;;3.90;95.50;;;;;;4996326;28;20088;-79
2022/01/13 00:44:19;;;;;;;51.13;16.35;;;3.90;95.60;;;;;;4996001;28;20045;-79
2022/01/13 00:46:50;;;;;;;50.00;16.83;;;3.90;95.60;;;;;;4981047;28;20046;-79
2022/01/13 00:49:17;;;;;;;36.97;14.45;;;3.90;95.50;;;;;;4980170;28;20096;-79
2022/01/13 00:51:44;;;;;;;37.20;12.80;;;3.90;95.60;;;;;;4979924;28;20141;-79
2022/01/13 00:54:11;;;;;;;45.17;15.82;;;3.90;95.60;;;;;;4980537;28;20050;-79
2022/01/13 00:56:40;;;;;;;45.97;14.88;;;3.90;95.60;;;;;;4996636;28;20062;-79
2022/01/13 00:59:10;;;;;;;42.42;14.80;;;3.90;95.60;;;;;;4996971;28;20050;-79
2022/01/13 01:01:47;;;;;;;42.35;15.20;;;3.90;95.60;;;;;;4996516;28;20042;-79
2022/01/13 01:04:15;;;;;;;46.63;14.48;;;3.90;95.60;;;;;;4996355;28;20440;-79
2022/01/13 01:06:43;;;;;;;38.38;13.40;;;3.90;95.60;;;;;;4980184;28;20080;-79
2022/01/13 01:09:15;;;;;;;36.40;13.63;;;3.90;95.60;;;;;;4964742;28;20061;-79
2022/01/13 01:11:45;;;;;;;39.78;14.20;;;3.80;95.60;;;;;;4997248;28;20046;-79
2022/01/13 01:14:14;;;;;;;45.83;15.18;;;3.90;95.60;;;;;;4996135;28;20049;-79
2022/01/13 01:16:42;;;;;;;36.67;13.80;;;3.90;95.60;;;;;;4980056;28;20056;-79
2022/01/13 01:19:12;;;;;;;47.53;14.65;;;3.90;95.90;;;;;;4996009;28;20502;-79
2022/01/13 01:27:15;;;;;;;43.03;15.57;;;3.90;95.70;;;;;;4955612;28;20047;-79
2022/01/13 01:29:51;;;;;;;38.10;15.38;;;3.90;95.70;;;;;;4982258;28;20113;-79
2022/01/13 01:32:18;;;;;;;42.88;16.00;;;3.80;95.70;;;;;;4995266;28;20497;-79
2022/01/13 01:34:55;;;;;;;46.83;17.27;;;3.90;95.70;;;;;;4995763;28;20100;-79
2022/01/13 01:37:26;;;;;;;52.90;18.33;;;3.80;95.70;;;;;;4980582;28;20062;-79
2022/01/13 01:39:55;;;;;;;47.08;17.17;;;3.90;95.70;;;;;;4995685;28;20045;-79
2022/01/13 01:42:24;;;;;;;47.55;16.30;;;3.90;95.70;;;;;;4979883;28;20457;-79
2022/01/13 01:44:55;;;;;;;41.25;15.18;;;3.90;95.70;;;;;;5011880;28;20156;-79
2022/01/13 01:47:28;;;;;;;48.58;16.63;;;3.90;95.70;;;;;;4995779;28;20045;-79
2022/01/13 01:49:59;;;;;;;46.47;15.35;;;3.90;95.70;;;;;;4995432;28;20568;-79
2022/01/13 01:52:27;;;;;;;41.92;14.50;;;3.90;95.70;;;;;;5012058;28;20088;-79
2022/01/13 01:54:54;;;;;;;35.40;12.82;;;3.90;95.80;;;;;;4976425;28;20046;-79
2022/01/13 01:57:23;;;;;;;43.83;14.30;;;3.90;95.80;;;;;;4944354;28;20553;-79
2022/01/13 01:59:50;;;;;;;52.90;16.02;;;3.90;95.80;;;;;;4976016;28;20073;-79
2022/01/13 02:02:21;;;;;;;48.10;17.40;;;3.90;95.80;;;;;;4959789;28;20049;-79
2022/01/13 02:04:48;;;;;;;43.88;15.48;;;3.90;95.70;;;;;;4992202;28;20162;-79
2022/01/13 02:07:15;;;;;;;42.47;16.10;;;3.80;95.70;;;;;;4959908;28;20108;-78
2022/01/13 02:09:44;;;;;;;43.15;16.23;;;3.80;95.80;;;;;;4976196;28;20058;-79
2022/01/13 02:12:20;;;;;;;45.63;17.17;;;3.80;95.80;;;;;;4976004;28;20050;-79
2022/01/13 02:14:56;;;;;;;46.00;15.85;;;3.80;95.80;;;;;;4957856;28;20051;-79
2022/01/13 02:17:26;;;;;;;46.67;17.13;;;3.80;95.80;;;;;;4973735;28;20046;-79
2022/01/13 02:19:55;;;;;;;41.45;16.50;;;3.80;95.80;;;;;;4975832;28;20050;-79
2022/01/13 02:22:23;;;;;;;38.55;13.68;;;3.80;95.80;;;;;;4959858;28;20048;-79
2022/01/13 02:24:50;;;;;;;44.00;15.80;;;3.80;95.80;;;;;;4959873;28;20047;-79
2022/01/13 02:27:17;;;;;;;36.05;12.70;;;3.80;95.80;;;;;;4975786;28;20042;-78
2022/01/13 02:29:44;;;;;;;42.78;17.13;;;3.80;95.90;;;;;;4959787;28;20077;-78
2022/01/13 02:32:12;;;;;;;38.08;14.93;;;3.80;95.80;;;;;;4959979;28;20100;-79
2022/01/13 02:34:39;;;;;;;38.33;16.38;;;3.80;95.80;;;;;;4959709;28;20073;-78
2022/01/13 02:37:07;;;;;;;39.72;14.57;;;3.80;95.80;;;;;;4959730;28;20069;-79
2022/01/13 02:39:34;;;;;;;46.58;15.95;;;3.80;95.90;;;;;;4976213;28;20140;-79
2022/01/13 02:42:03;;;;;;;36.05;14.18;;;3.80;95.90;;;;;;4994425;28;20084;-79
2022/01/13 02:44:31;;;;;;;38.22;13.40;;;3.80;95.90;;;;;;4996736;28;20482;-79
2022/01/13 02:47:10;;;;;;;29.55;10.93;;;3.80;95.90;;;;;;4963217;28;20038;-78
2022/01/13 02:49:57;;;;;;;25.60;9.43;;;3.80;95.90;;;;;;4995182;28;20085;-78
2022/01/13 02:52:24;;;;;;;24.08;8.63;;;3.90;96.00;;;;;;4947274;28;20042;-78
2022/01/13 02:54:51;;;;;;;28.20;8.57;;;3.90;95.90;;;;;;4965653;28;20081;-79
2022/01/13 02:57:24;;;;;;;33.00;10.35;;;3.90;95.90;;;;;;4998841;28;20509;-79
2022/01/13 02:59:51;;;;;;;33.10;12.82;;;3.90;95.90;;;;;;4982830;28;20486;-79
2022/01/13 03:02:18;;;;;;;28.70;10.35;;;3.90;95.90;;;;;;5014947;28;20045;-79
2022/01/13 03:04:49;;;;;;;24.75;9.45;;;3.90;95.90;;;;;;4982266;28;20046;-79
2022/01/13 03:07:16;;;;;;;22.58;8.93;;;3.90;95.90;;;;;;4982896;28;20139;-79
2022/01/13 03:09:43;;;;;;;24.85;8.77;;;3.90;95.90;;;;;;4966445;28;20136;-79
2022/01/13 03:12:11;;;;;;;29.83;9.77;;;4.00;95.90;;;;;;4998516;28;20056;-79
2022/01/13 03:14:38;;;;;;;23.23;8.32;;;4.00;95.90;;;;;;4998452;28;20050;-79
2022/01/13 03:17:05;;;;;;;22.00;7.88;;;4.00;95.90;;;;;;4982302;28;20099;-79
2022/01/13 03:19:32;;;;;;;26.63;10.02;;;4.00;96.00;;;;;;4982560;28;20398;-79
2022/01/13 03:22:00;;;;;;;33.90;10.43;;;3.90;95.90;;;;;;5014538;28;20048;-79
2022/01/13 03:24:29;;;;;;;29.63;10.35;;;3.90;95.90;;;;;;4991268;28;20134;-78
2022/01/13 03:26:57;;;;;;;24.05;9.13;;;3.90;95.90;;;;;;4971454;28;20046;-79
2022/01/13 03:29:25;;;;;;;21.63;7.95;;;3.90;95.90;;;;;;4978625;28;20066;-79
2022/01/13 03:31:52;;;;;;;30.42;10.95;;;4.00;96.00;;;;;;4996105;28;20046;-79
2022/01/13 03:34:19;;;;;;;29.23;11.10;;;4.00;95.90;;;;;;4978585;28;20051;-79
2022/01/13 03:36:47;;;;;;;32.40;11.68;;;3.90;95.90;;;;;;4971520;28;20549;-79
2022/01/13 03:39:14;;;;;;;30.15;10.90;;;3.90;95.90;;;;;;4946897;28;20057;-79
2022/01/13 03:41:41;;;;;;;25.38;9.18;;;3.90;96.00;;;;;;4970144;28;20066;-79
2022/01/13 03:44:17;;;;;;;23.23;8.20;;;3.90;96.00;;;;;;4995474;28;20038;-79
2022/01/13 03:46:44;;;;;;;29.15;10.88;;;3.90;96.00;;;;;;4961837;28;20466;-79
2022/01/13 03:49:12;;;;;;;28.48;11.32;;;3.90;96.00;;;;;;4977891;28;20069;-79
2022/01/13 03:52:04;;;;;;;29.83;11.10;;;3.90;96.00;;;;;;4977926;28;20125;-79
2022/01/13 03:54:33;;;;;;;27.10;10.77;;;3.90;96.00;;;;;;4968487;28;20046;-79
2022/01/13 03:57:38;;;;;;;24.35;8.82;;;3.90;96.00;;;;;;4969290;28;20078;-78
2022/01/13 04:00:41;;;;;;;26.15;8.15;;;3.90;96.10;;;;;;4978191;28;20104;-78
2022/01/13 04:03:09;;;;;;;22.73;8.65;;;3.90;96.00;;;;;;4995688;28;20038;-79
2022/01/13 04:06:27;;;;;;;22.17;7.88;;;3.90;96.00;;;;;;4962064;28;20067;-79
2022/01/13 04:08:55;;;;;;;20.35;8.30;;;3.90;96.00;;;;;;4967089;28;20108;-79
2022/01/13 04:11:30;;;;;;;17.73;7.05;;;3.90;96.00;;;;;;4978044;28;20383;-79
2022/01/13 04:14:01;;;;;;;22.13;7.63;;;3.90;96.00;;;;;;4977923;28;20458;-78
2022/01/13 04:16:31;;;;;;;18.52;7.07;;;3.90;96.00;;;;;;4978030;28;20137;-78
2022/01/13 04:19:04;;;;;;;19.70;6.90;;;3.90;96.00;;;;;;4993982;28;20046;-79
2022/01/13 04:21:38;;;;;;;21.73;7.10;;;3.90;96.00;;;;;;4977876;28;20042;-79
2022/01/13 04:24:11;;;;;;;18.67;6.55;;;3.90;96.00;;;;;;4995073;28;20395;-79
2022/01/13 04:26:42;;;;;;;;;;;3.90;96.10;;;;;;4978092;28;20137;-79
2022/01/13 04:31:54;;;;;;;18.98;7.95;;;3.90;96.10;;;;;;4977436;28;20473;-78
2022/01/13 04:34:21;;;;;;;19.83;7.90;;;3.90;96.00;;;;;;4977794;28;20180;-79
2022/01/13 04:36:52;;;;;;;19.50;7.68;;;3.80;96.00;;;;;;4977338;28;20074;-79
2022/01/13 04:39:19;;;;;;;27.00;10.57;;;3.80;96.00;;;;;;4977000;28;20038;-78
2022/01/13 04:41:47;;;;;;;24.65;10.82;;;3.80;96.00;;;;;;4944695;28;20058;-79
2022/01/13 04:44:17;;;;;;;29.27;10.45;;;3.80;96.00;;;;;;4961562;28;20066;-80
2022/01/13 04:46:45;;;;;;;31.30;11.07;;;3.80;96.00;;;;;;4978399;28;20148;-79
2022/01/13 04:49:12;;;;;;;27.38;10.82;;;3.70;96.00;;;;;;5009738;28;20034;-79
2022/01/13 04:51:40;;;;;;;30.17;10.60;;;3.70;96.10;;;;;;4993280;28;20074;-79
2022/01/13 04:54:08;;;;;;;27.45;9.82;;;3.70;96.10;;;;;;4961264;28;20058;-79
2022/01/13 04:59:06;;;;;;;25.63;10.65;;;3.70;96.20;;;;;;4993741;28;20042;-79
2022/01/13 05:01:34;;;;;;;25.73;10.40;;;3.70;96.10;;;;;;4977236;28;20100;-79
2022/01/13 05:04:02;;;;;;;25.75;11.32;;;3.70;96.10;;;;;;4977538;28;20042;-79
2022/01/13 05:06:29;;;;;;;22.75;8.88;;;3.70;96.10;;;;;;4993272;28;20047;-78
2022/01/13 05:08:56;;;;;;;21.38;8.65;;;3.60;96.20;;;;;;4992521;28;20057;-79
2022/01/13 05:11:24;;;;;;;25.33;8.93;;;3.60;96.20;;;;;;4973185;28;21474;-78
2022/01/13 05:13:51;;;;;;;28.33;11.30;;;3.60;96.20;;;;;;4993999;28;20042;-79
2022/01/13 05:16:23;;;;;;;25.40;9.35;;;3.60;96.10;;;;;;4976537;28;20051;-79
2022/01/13 05:18:58;;;;;;;23.40;9.90;;;3.60;96.20;;;;;;4992702;28;20129;-79
2022/01/13 05:24:10;;;;;;;17.08;6.50;;;3.60;96.20;;;;;;4979091;28;20046;-79
2022/01/13 05:26:38;;;;;;;19.40;7.40;;;3.60;96.20;;;;;;4976524;28;20042;-79
2022/01/13 05:29:05;;;;;;;27.17;8.98;;;3.60;96.30;;;;;;4992667;28;20410;-79
2022/01/13 05:31:32;;;;;;;21.00;8.35;;;3.60;96.30;;;;;;4992659;28;20043;-79
2022/01/13 05:33:59;;;;;;;20.55;7.93;;;3.60;96.20;;;;;;4976680;28;20043;-78
2022/01/13 05:36:26;;;;;;;17.83;6.13;;;3.60;96.20;;;;;;4960444;28;20503;-79
2022/01/13 05:38:53;;;;;;;19.88;7.45;;;3.60;96.20;;;;;;4976628;28;20101;-79
2022/01/13 05:41:20;;;;;;;19.20;7.43;;;3.60;96.20;;;;;;4992643;28;20549;-79
2022/01/13 05:43:47;;;;;;;21.63;8.65;;;3.60;96.20;;;;;;4992550;28;20518;-79
2022/01/13 05:46:14;;;;;;;17.52;7.97;;;3.60;96.20;;;;;;4976429;28;20450;-79
2022/01/13 05:48:41;;;;;;;19.75;7.60;;;3.60;96.20;;;;;;4960260;28;20410;-79
2022/01/13 05:51:08;;;;;;;18.67;7.97;;;3.60;96.50;;;;;;4975214;28;20051;-79
2022/01/13 05:53:35;;;;;;;20.38;7.55;;;3.60;96.30;;;;;;4959170;28;20082;-79
2022/01/13 05:56:02;;;;;;;17.88;6.95;;;3.60;96.20;;;;;;4950884;28;20050;-79
2022/01/13 05:58:32;;;;;;;17.58;6.25;;;3.60;96.20;;;;;;4993321;28;20368;-79
2022/01/13 06:00:59;;;;;;;24.40;9.02;;;3.70;96.30;;;;;;4993287;28;20117;-78
2022/01/13 06:03:26;;;;;;;18.17;7.03;;;3.60;96.20;;;;;;4959862;28;20454;-79
2022/01/13 06:05:53;;;;;;;19.88;7.60;;;3.60;96.20;;;;;;4960078;28;20490;-79
2022/01/13 06:08:20;;;;;;;14.80;6.60;;;3.60;96.20;;;;;;4992152;28;20077;-78
2022/01/13 06:10:47;;;;;;;20.58;6.45;;;3.60;96.20;;;;;;4960090;28;20494;-78
2022/01/13 06:13:17;;;;;;;41.55;8.63;;;3.70;96.30;;;;;;4976770;28;20058;-79
2022/01/13 06:15:44;;;;;;;17.10;7.25;;;3.60;96.20;;;;;;4975444;28;20051;-78
2022/01/13 06:18:18;;;;;;;17.80;7.28;;;3.60;96.20;;;;;;4975808;28;20053;-79
2022/01/13 06:20:45;;;;;;;21.30;9.27;;;3.60;96.20;;;;;;4976291;28;20555;-79
2022/01/13 06:23:15;;;;;;;28.35;11.02;;;3.60;96.20;;;;;;4991575;28;20066;-79
2022/01/13 06:25:42;;;;;;;19.67;8.02;;;3.60;96.20;;;;;;4959942;28;20487;-79
2022/01/13 06:28:09;;;;;;;20.70;7.82;;;3.50;96.20;;;;;;4959476;28;20101;-79
2022/01/13 06:30:40;;;;;;;17.67;6.88;;;3.50;96.30;;;;;;4959919;28;20042;-79
2022/01/13 06:33:07;;;;;;;19.08;8.73;;;3.50;96.30;;;;;;4974987;28;20082;-79
2022/01/13 06:35:34;;;;;;;24.35;8.88;;;3.50;96.30;;;;;;4943577;28;20101;-80
2022/01/13 06:38:01;;;;;;;28.40;8.80;;;3.50;96.30;;;;;;4975955;28;20046;-79
2022/01/13 06:40:28;;;;;;;26.45;9.45;;;3.50;96.30;;;;;;4993007;28;20560;-79
2022/01/13 06:42:55;;;;;;;30.23;11.05;;;3.50;96.30;;;;;;4975757;28;20089;-80
2022/01/13 06:45:22;;;;;;;23.38;9.15;;;3.40;96.30;;;;;;4960016;28;20053;-79
2022/01/13 06:47:49;;;;;;;23.10;8.90;;;3.40;96.30;;;;;;4943968;28;20042;-80
2022/01/13 06:50:19;;;;;;;25.67;9.40;;;3.40;96.30;;;;;;4975864;28;20161;-76
2022/01/13 06:52:47;;;;;;;23.85;9.55;;;3.40;96.60;;;;;;4975481;28;20062;-76
2022/01/13 06:55:15;;;;;;;21.45;9.02;;;3.40;96.40;;;;;;4981238;28;20058;-77
2022/01/13 06:57:42;;;;;;;25.00;10.90;;;3.40;96.30;;;;;;4994892;28;20081;-77
2022/01/13 07:00:10;;;;;;;17.95;8.55;;;3.40;96.40;;;;;;4979362;28;20077;-77
2022/01/13 07:02:37;;;;;;;18.27;7.45;;;3.40;96.40;;;;;;4978787;28;20409;-77
2022/01/13 07:05:05;;;;;;;16.88;7.00;;;3.40;96.40;;;;;;4978914;28;20092;-77
2022/01/13 07:07:35;;;;;;;17.33;6.72;;;3.40;96.40;;;;;;4962745;28;20042;-77
2022/01/13 07:10:07;;;;;;;16.25;6.60;;;3.40;96.70;;;;;;4979102;28;20046;-78
2022/01/13 07:12:34;;;;;;;16.77;7.25;;;3.40;96.40;;;;;;4978559;28;20514;-77
2022/01/13 07:15:01;;;;;;;17.92;6.93;;;3.40;96.40;;;;;;4977887;28;20057;-79
2022/01/13 07:17:29;;;;;;;19.88;7.18;;;3.50;96.40;;;;;;4977811;28;20120;-80
2022/01/13 07:19:57;;;;;;;14.80;6.50;;;3.50;96.40;;;;;;4994219;28;20038;-80
2022/01/13 07:22:24;;;;;;;13.90;5.45;;;3.50;96.40;;;;;;5011732;28;20069;-79
2022/01/13 07:24:51;;;;;;;17.73;7.70;;;3.50;96.40;;;;;;4978094;28;20449;-79
2022/01/13 07:27:19;;;;;;;17.38;7.68;;;3.50;96.40;;;;;;4946480;28;20038;-79
2022/01/13 07:40:21;;;;;;;19.42;7.40;;;3.50;96.40;;;;;;5866520;23;20846;31
2022/01/13 07:49:50;;;;;;;17.23;8.07;;;3.50;96.30;;;;;;4444038;23;20060;-78
2022/01/13 07:55:20;;;;;;;27.70;11.27;;;3.50;96.40;;;;;;5238326;23;20044;-84
2022/01/13 07:57:47;;;;;;;21.15;9.18;;;3.50;96.40;;;;;;4869338;29;20055;-84
2022/01/13 08:00:15;;;;;;;20.88;8.00;;;3.50;96.40;;;;;;4870629;29;20509;-83
2022/01/13 08:02:42;;;;;;;17.58;6.72;;;3.50;96.40;;;;;;4901356;29;20100;-83
2022/01/13 08:05:10;;;;;;;16.85;6.47;;;3.50;96.50;;;;;;4870538;29;20479;-82
2022/01/13 08:07:37;;;;;;;20.33;8.32;;;3.60;96.50;;;;;;4901568;29;20051;-83
2022/01/13 08:10:04;;;;;;;20.95;7.85;;;3.60;96.50;;;;;;4918349;29;20514;-83
2022/01/13 08:12:31;;;;;;;19.00;7.45;;;3.60;96.50;;;;;;4870690;29;20139;-83
2022/01/13 08:14:58;;;;;;;18.83;6.88;;;3.60;96.50;;;;;;4886603;29;20056;-83
2022/01/13 08:20:11;;;;;;;20.63;8.00;;;3.60;96.50;;;;;;4888636;29;20083;-82
2022/01/13 08:22:39;;;;;;;18.92;7.30;;;3.60;96.50;;;;;;4886340;29;20444;-86
2022/01/13 08:25:09;;;;;;;17.67;7.65;;;3.60;96.50;;;;;;4871873;29;20471;-85
2022/01/13 08:27:37;;;;;;;17.90;7.13;;;3.70;96.50;;;;;;4886351;29;20412;-85
2022/01/13 08:30:06;;;;;;;19.20;7.22;;;3.70;96.50;;;;;;4902050;29;20076;-85
2022/01/13 08:32:33;;;;;;;17.77;6.63;;;3.70;96.50;;;;;;4886741;29;20452;-85
2022/01/13 08:35:00;;;;;;;16.50;5.72;;;3.70;96.50;;;;;;4871705;29;20415;-86
2022/01/13 08:37:27;;;;;;;15.75;6.55;;;3.70;96.50;;;;;;4886524;29;20079;-83
2022/01/13 08:39:56;;;;;;;18.08;6.82;;;3.70;96.50;;;;;;4885854;29;20073;-83
2022/01/13 08:42:24;;;;;;;19.70;5.97;;;3.70;96.50;;;;;;4886290;29;20048;-86
2022/01/13 08:44:51;;;;;;;14.18;6.00;;;3.70;96.50;;;;;;4886463;29;20044;-85
2022/01/13 08:47:20;;;;;;;13.35;5.43;;;3.80;96.50;;;;;;4886159;29;20082;-86
2022/01/13 08:49:47;;;;;;;14.13;5.55;;;3.70;96.40;;;;;;4886457;29;20049;-85
2022/01/13 08:52:15;;;;;;;15.70;7.10;;;3.70;96.40;;;;;;4886236;29;20052;-85
2022/01/13 08:54:45;;;;;;;17.08;6.88;;;3.80;96.40;;;;;;4870192;29;20071;-85
2022/01/13 08:57:13;;;;;;;19.98;8.27;;;3.70;96.40;;;;;;4901046;29;20115;-83
2022/01/13 08:59:40;;;;;;;18.77;7.47;;;3.70;96.40;;;;;;4901683;29;20051;-85
2022/01/13 09:02:07;;;;;;;18.23;8.10;;;3.70;96.40;;;;;;4870740;29;20050;-85
2022/01/13 09:04:34;;;;;;;16.85;7.15;;;3.70;96.40;;;;;;4870559;29;20044;-85
2022/01/13 09:07:01;;;;;;;14.98;6.18;;;3.70;96.40;;;;;;4885670;29;20052;-81
2022/01/13 09:09:29;;;;;;;15.20;6.50;;;3.70;96.50;;;;;;4885201;29;20036;-81
2022/01/13 09:11:56;;;;;;;16.67;6.63;;;3.80;96.50;;;;;;4869612;29;20390;-81
2022/01/13 09:14:26;;;;;;;16.63;6.85;;;3.80;96.40;;;;;;4869400;29;20056;-76
2022/01/13 09:16:54;;;;;;;18.15;7.18;;;3.80;96.50;;;;;;4885090;29;20043;-75
2022/01/13 09:19:21;;;;;;;18.95;8.57;;;3.80;96.40;;;;;;4900081;29;20068;-75
2022/01/13 09:21:49;;;;;;;19.17;7.50;;;3.80;96.40;;;;;;4883780;29;20551;-74
2022/01/13 09:24:21;;;;;;;22.40;8.85;;;3.70;96.40;;;;;;4899714;29;20048;-75
2022/01/13 09:26:48;;;;;;;19.67;8.77;;;3.80;96.40;;;;;;4900546;29;20052;-75
2022/01/13 09:29:15;;;;;;;21.40;8.52;;;3.70;96.40;;;;;;4869236;29;20055;-76
2022/01/13 09:31:45;;;;;;;17.20;7.53;;;3.70;96.40;;;;;;4900349;29;20044;-74
2022/01/13 09:34:13;;;;;;;16.55;7.22;;;3.70;96.40;;;;;;4869487;29;20547;-78
2022/01/13 09:36:40;;;;;;;18.45;8.10;;;3.70;96.40;;;;;;4884714;29;20135;-77
2022/01/13 09:39:14;;;;;;;17.50;7.45;;;3.70;96.40;;;;;;4870017;29;20063;-79
2022/01/13 09:41:43;;;;;;;18.52;7.70;;;3.80;96.70;;;;;;4869593;29;20060;-78
2022/01/13 09:44:13;;;;;;;15.98;6.32;;;3.70;96.40;;;;;;4884441;29;20107;-77
2022/01/13 09:46:40;;;;;;;16.40;6.22;;;3.70;96.40;;;;;;4884661;29;20052;-78
2022/01/13 09:49:08;;;;;;;16.65;6.95;;;3.70;96.50;;;;;;4884418;29;20044;-79
2022/01/13 09:51:37;;;;;;;13.80;5.93;;;3.80;96.50;;;;;;4883967;29;20056;-78
2022/01/13 09:54:04;;;;;;;13.32;6.13;;;3.80;96.70;;;;;;4884544;29;20096;-78
2022/01/13 09:56:35;;;;;;;17.33;7.10;;;3.80;96.40;;;;;;4884576;29;20124;-78
2022/01/13 09:59:02;;;;;;;15.43;6.90;;;3.90;96.40;;;;;;4899453;29;20052;-76
2022/01/13 10:01:29;;;;;;;15.00;6.47;;;3.90;96.40;;;;;;4883934;29;20048;-76
2022/01/13 10:03:56;;;;;;;15.70;6.28;;;3.90;96.40;;;;;;4868557;29;20048;-77
2022/01/13 10:06:23;;;;;;;14.70;5.90;;;3.90;96.40;;;;;;4868713;29;20112;-77
2022/01/13 10:08:58;;;;;;;13.02;5.65;;;3.90;96.40;;;;;;4899405;29;20130;-77
2022/01/13 10:11:48;;;;;;;19.42;7.03;;;3.90;96.40;;;;;;4883926;29;20095;-78
2022/01/13 10:16:55;;;;;;;17.30;6.88;;;4.00;96.30;;;;;;4899427;29;20055;-76
2022/01/13 10:19:30;;;;;;;13.57;6.60;;;4.00;96.30;;;;;;4899203;29;20048;-76
2022/01/13 10:22:07;;;;;;;14.45;5.35;;;4.00;96.60;;;;;;4869011;29;20056;-76
2022/01/13 10:24:37;;;;;;;15.43;6.35;;;4.10;96.30;;;;;;4883797;29;20051;-77
2022/01/13 10:27:04;;;;;;;16.13;6.03;;;4.10;96.30;;;;;;4883847;29;20575;-83
2022/01/13 10:29:43;;;;;;;15.35;7.25;;;4.10;96.30;;;;;;4900243;29;20044;-84
2022/01/13 10:32:14;;;;;;;15.52;6.15;;;4.10;96.30;;;;;;4900392;29;20554;-84
2022/01/13 10:34:44;;;;;;;16.98;5.93;;;4.20;96.30;;;;;;4900695;29;20111;-84
2022/01/13 10:37:18;;;;;;;13.50;5.25;;;4.20;96.30;;;;;;4900138;29;20056;-85
2022/01/13 10:40:04;;;;;;;15.07;6.53;;;4.20;96.30;;;;;;4883814;29;20114;-76
2022/01/13 10:45:14;;;;;;;15.40;6.75;;;4.30;96.20;;;;;;4916035;29;20048;-76
2022/01/13 10:47:58;;;;;;;18.30;6.97;;;4.20;96.10;;;;;;4883938;29;20059;-77
2022/01/13 10:50:41;;;;;;;15.35;5.82;;;4.20;96.20;;;;;;4883175;29;20103;-77
2022/01/13 10:53:30;;;;;;;14.85;6.80;;;4.20;96.10;;;;;;4883579;29;20103;-79
2022/01/13 10:55:58;;;;;;;17.98;6.95;;;4.20;96.20;;;;;;4898713;29;20059;-76
2022/01/13 10:58:32;;;;;;;15.55;7.05;;;4.20;96.20;;;;;;4883572;29;20059;-77
2022/01/13 11:01:00;;;;;;;16.45;7.25;;;4.20;96.40;;;;;;4883171;29;20052;-76
2022/01/13 11:03:30;;;;;;;17.08;7.07;;;4.20;96.20;;;;;;4871518;29;20054;-79
2022/01/13 11:06:04;;;;;;;16.27;7.10;;;4.20;96.20;;;;;;4887416;29;20040;-78
2022/01/13 11:08:33;;;;;;;20.90;8.65;;;4.20;96.20;;;;;;4886516;29;20048;-79
2022/01/13 11:11:02;;;;;;;16.98;7.63;;;4.20;96.20;;;;;;4902223;29;20036;-77
2022/01/13 11:13:35;;;;;;;20.55;8.23;;;4.20;96.20;;;;;;4886741;29;20056;-78
2022/01/13 11:16:03;;;;;;;16.05;7.13;;;4.20;96.20;;;;;;4919264;29;20048;-78
2022/01/13 11:18:32;;;;;;;17.65;7.88;;;4.20;96.20;;;;;;4886833;29;20052;-76
2022/01/13 11:20:59;;;;;;;15.00;5.68;;;4.30;96.20;;;;;;4871390;29;20123;-75
2022/01/13 11:23:27;;;;;;;12.68;6.22;;;4.30;96.30;;;;;;4886715;29;20051;-76
2022/01/13 11:25:56;;;;;;;16.80;7.22;;;4.30;96.20;;;;;;4871428;29;20044;-75
2022/01/13 11:28:24;;;;;;;20.67;8.40;;;4.40;96.20;;;;;;4902101;29;20052;-75
2022/01/13 11:30:52;;;;;;;20.92;9.98;;;4.40;96.20;;;;;;4902204;29;20040;-75
2022/01/13 11:33:21;;;;;;;23.67;9.35;;;4.30;96.10;;;;;;4886632;29;20088;-75
2022/01/13 11:35:55;;;;;;;21.77;9.10;;;4.30;96.10;;;;;;4902387;29;20044;-76
2022/01/13 11:38:26;;;;;;;22.38;9.48;;;4.30;96.10;;;;;;4919021;29;20104;-75
2022/01/13 11:41:14;;;;;;;18.75;9.30;;;4.30;96.20;;;;;;4886337;29;20151;-76
2022/01/13 11:43:42;;;;;;;18.20;8.98;;;4.30;96.00;;;;;;4901425;29;20056;-75
2022/01/13 11:46:21;;;;;;;24.30;10.20;;;4.20;96.00;;;;;;4886297;29;20138;-75
2022/01/13 11:49:09;;;;;;;22.13;8.13;;;4.20;96.10;;;;;;4885924;29;20456;-76
2022/01/13 11:51:48;;;;;;;19.30;8.65;;;4.20;96.10;;;;;;4886164;29;20056;-75
2022/01/13 11:54:33;;;;;;;18.15;7.80;;;4.20;96.10;;;;;;4886258;29;20476;-75
2022/01/13 11:57:22;;;;;;;18.48;7.68;;;4.30;96.20;;;;;;4901527;29;20131;-75
2022/01/13 11:59:55;;;;;;;16.92;6.38;;;4.30;96.20;;;;;;4901683;29;20044;-75
2022/01/13 12:02:38;;;;;;;16.17;6.90;;;4.30;96.20;;;;;;4901676;29;20048;-75
2022/01/13 12:05:16;;;;;;;18.77;7.28;;;4.30;96.20;;;;;;4886029;29;20044;-75
2022/01/13 12:07:45;;;;;;;20.08;8.55;;;4.30;96.10;;;;;;4885889;29;20040;-76
2022/01/13 12:10:37;;;;;;;19.67;8.73;;;4.30;96.40;;;;;;4886016;29;20044;-76
2022/01/13 12:13:31;;;;;;;19.15;9.13;;;4.30;96.10;;;;;;4882921;29;20048;-77
2022/01/13 12:15:59;;;;;;;23.85;10.23;;;4.20;96.10;;;;;;4901465;29;20040;-75
2022/01/13 12:19:27;;;;;;;27.45;11.45;;;4.20;96.10;;;;;;4901418;29;20112;-76
2022/01/13 12:22:00;;;;;;;29.10;13.30;;;4.20;96.10;;;;;;4899244;29;20052;-75
2022/01/13 12:24:47;;;;;;;23.95;11.65;;;4.10;96.10;;;;;;4885386;29;20043;-75
2022/01/13 12:27:16;;;;;;;20.08;9.73;;;4.10;96.20;;;;;;4901077;29;20509;-75
2022/01/13 12:29:50;;;;;;;21.88;9.73;;;4.10;96.20;;;;;;4885637;29;20040;-76
2022/01/13 12:32:44;;;;;;;24.10;10.32;;;4.10;96.20;;;;;;4900964;29;20131;-75
2022/01/13 12:35:15;;;;;;;24.83;10.75;;;4.10;96.20;;;;;;4900884;29;20107;-75
2022/01/13 12:38:01;;;;;;;24.35;10.40;;;4.10;96.20;;;;;;4901241;29;20048;-76
2022/01/13 12:41:02;;;;;;;26.00;11.05;;;4.10;96.20;;;;;;4885497;29;20095;-76
2022/01/13 12:46:16;;;;;;;17.55;7.78;;;4.10;96.50;;;;;;4917543;29;20460;-73
2022/01/13 12:48:49;;;;;;;18.45;7.50;;;4.10;96.30;;;;;;4900357;29;20135;-75
2022/01/13 12:51:19;;;;;;;19.40;8.45;;;4.10;96.30;;;;;;4899344;29;20084;-72
2022/01/13 12:53:48;;;;;;;20.77;8.50;;;4.20;96.30;;;;;;4897685;29;20412;-73
2022/01/13 12:56:24;;;;;;;19.50;8.07;;;4.10;96.20;;;;;;4900099;29;20103;-73
2022/01/13 12:58:57;;;;;;;18.70;8.73;;;4.10;96.30;;;;;;4884684;29;20095;-73
2022/01/13 13:01:29;;;;;;;22.45;9.50;;;4.10;96.20;;;;;;4900220;29;20075;-74
2022/01/13 13:04:02;;;;;;;19.60;8.60;;;4.10;96.30;;;;;;4900061;29;20086;-73
2022/01/13 13:06:34;;;;;;;17.88;8.20;;;4.10;96.20;;;;;;4900128;29;20518;-73
2022/01/13 13:09:07;;;;;;;33.60;10.52;;;4.10;96.20;;;;;;4884682;29;20095;-74
2022/01/13 13:11:39;;;;;;;18.20;8.07;;;4.00;96.20;;;;;;4895763;29;20108;-73
2022/01/13 13:14:15;;;;;;;20.55;9.20;;;4.10;96.30;;;;;;4876541;29;20851;-73
2022/01/13 13:16:48;;;;;;;20.67;9.15;;;4.10;96.30;;;;;;4866858;29;20052;-74
2022/01/13 13:19:15;;;;;;;19.20;9.52;;;4.10;96.30;;;;;;4899897;29;20412;-74
2022/01/13 13:21:49;;;;;;;20.85;9.07;;;4.10;96.30;;;;;;4884449;29;20048;-74
2022/01/13 13:24:16;;;;;;;20.05;8.20;;;4.10;96.30;;;;;;4883955;29;20047;-75
2022/01/13 13:26:44;;;;;;;23.27;9.45;;;4.10;96.30;;;;;;4883458;29;20051;-74
2022/01/13 13:29:11;;;;;;;21.35;10.25;;;4.10;96.30;;;;;;4899884;29;20040;-75
2022/01/13 13:31:40;;;;;;;22.48;10.15;;;4.10;96.30;;;;;;4884455;29;20055;-75
2022/01/13 13:34:13;;;;;;;22.60;9.60;;;4.10;96.30;;;;;;4884585;29;20075;-73
2022/01/13 13:36:43;;;;;;;24.75;8.90;;;4.10;96.60;;;;;;4899869;29;20059;-75
2022/01/13 13:39:18;;;;;;;21.20;9.10;;;4.10;96.30;;;;;;4899904;29;20103;-74
2022/01/13 13:41:48;;;;;;;20.95;8.35;;;4.10;96.40;;;;;;4884202;29;20048;-75
2022/01/13 13:44:27;;;;;;;23.95;9.18;;;4.10;96.40;;;;;;4899637;29;20065;-75
2022/01/13 13:47:00;;;;;;;23.10;9.40;;;4.10;96.30;;;;;;4899944;29;20040;-75
2022/01/13 13:49:29;;;;;;;23.20;8.80;;;4.10;96.40;;;;;;4899901;29;20067;-76